sensor_id;sensor_type;location;lat;lon;timestamp;pressure;altitude;pressure_sealevel;temperature;humidity
83496;BME280;73431;40.794;43.836;2024-01-27T00:01:02;83609.41;;;1.10;57.84
83496;BME280;73431;40.794;43.836;2024-01-27T00:03:29;83598.13;;;1.04;58.19
83496;BME280;73431;40.794;43.836;2024-01-27T00:05:57;83601.78;;;0.81;58.26
83496;BME280;73431;40.794;43.836;2024-01-27T00:08:24;83593.31;;;0.68;58.69
83496;BME280;73431;40.794;43.836;2024-01-27T00:10:52;83592.47;;;0.71;58.62
83496;BME280;73431;40.794;43.836;2024-01-27T00:13:20;83595.38;;;0.86;58.47
83496;BME280;73431;40.794;43.836;2024-01-27T00:15:48;83593.91;;;0.97;57.77
83496;BME280;73431;40.794;43.836;2024-01-27T00:18:15;83523.81;;;0.67;58.10
83496;BME280;73431;40.794;43.836;2024-01-27T00:20:44;83579.91;;;1.08;57.56
83496;BME280;73431;40.794;43.836;2024-01-27T00:23:11;83573.16;;;1.10;57.61
83496;BME280;73431;40.794;43.836;2024-01-27T00:25:39;83556.50;;;0.98;57.34
83496;BME280;73431;40.794;43.836;2024-01-27T00:28:07;83562.91;;;1.06;57.27
83496;BME280;73431;40.794;43.836;2024-01-27T00:30:35;83572.53;;;1.06;57.15
83496;BME280;73431;40.794;43.836;2024-01-27T00:33:03;83568.06;;;1.06;57.10
83496;BME280;73431;40.794;43.836;2024-01-27T00:35:31;83557.00;;;0.93;58.10
83496;BME280;73431;40.794;43.836;2024-01-27T00:37:59;83563.56;;;0.85;58.13
83496;BME280;73431;40.794;43.836;2024-01-27T00:40:26;83559.31;;;0.79;57.93
83496;BME280;73431;40.794;43.836;2024-01-27T00:42:55;83554.03;;;0.82;57.90
83496;BME280;73431;40.794;43.836;2024-01-27T00:45:22;83530.50;;;0.77;58.17
83496;BME280;73431;40.794;43.836;2024-01-27T00:47:50;83531.78;;;0.72;58.12
83496;BME280;73431;40.794;43.836;2024-01-27T00:50:18;83513.56;;;0.63;58.17
83496;BME280;73431;40.794;43.836;2024-01-27T00:52:46;83530.72;;;0.82;58.09
83496;BME280;73431;40.794;43.836;2024-01-27T00:55:14;83514.03;;;0.83;58.17
83496;BME280;73431;40.794;43.836;2024-01-27T00:57:43;83524.66;;;0.64;58.27
83496;BME280;73431;40.794;43.836;2024-01-27T01:00:11;83523.31;;;0.59;58.11
83496;BME280;73431;40.794;43.836;2024-01-27T01:02:38;83513.69;;;0.47;58.69
83496;BME280;73431;40.794;43.836;2024-01-27T01:05:08;83513.09;;;0.30;58.94
83496;BME280;73431;40.794;43.836;2024-01-27T01:07:35;83510.91;;;0.16;59.45
83496;BME280;73431;40.794;43.836;2024-01-27T01:10:03;83495.72;;;0.06;59.11
83496;BME280;73431;40.794;43.836;2024-01-27T01:12:31;83505.34;;;0.05;59.52
83496;BME280;73431;40.794;43.836;2024-01-27T01:14:59;83502.84;;;0.02;59.95
83496;BME280;73431;40.794;43.836;2024-01-27T01:17:26;83512.78;;;-0.10;60.26
83496;BME280;73431;40.794;43.836;2024-01-27T01:19:54;83506.97;;;-0.14;60.24
83496;BME280;73431;40.794;43.836;2024-01-27T01:22:22;83496.63;;;-0.26;60.51
83496;BME280;73431;40.794;43.836;2024-01-27T01:24:50;83494.44;;;-0.28;60.30
83496;BME280;73431;40.794;43.836;2024-01-27T01:27:18;83491.13;;;-0.28;60.63
83496;BME280;73431;40.794;43.836;2024-01-27T01:29:48;83494.78;;;-0.26;60.07
83496;BME280;73431;40.794;43.836;2024-01-27T01:32:16;83486.59;;;-0.24;60.46
83496;BME280;73431;40.794;43.836;2024-01-27T01:34:46;83485.56;;;-0.14;60.58
83496;BME280;73431;40.794;43.836;2024-01-27T01:37:14;83495.81;;;-0.11;60.75
83496;BME280;73431;40.794;43.836;2024-01-27T01:39:42;83496.44;;;-0.07;60.58
83496;BME280;73431;40.794;43.836;2024-01-27T01:42:09;83487.13;;;-0.04;60.46
83496;BME280;73431;40.794;43.836;2024-01-27T01:44:37;83490.34;;;0.00;60.33
83496;BME280;73431;40.794;43.836;2024-01-27T01:47:05;83490.53;;;0.06;59.96
83496;BME280;73431;40.794;43.836;2024-01-27T01:49:33;83485.25;;;0.22;59.50
83496;BME280;73431;40.794;43.836;2024-01-27T01:52:02;83469.28;;;0.36;59.08
83496;BME280;73431;40.794;43.836;2024-01-27T01:54:30;83479.22;;;0.50;58.69
83496;BME280;73431;40.794;43.836;2024-01-27T01:56:59;83484.78;;;0.61;58.62
83496;BME280;73431;40.794;43.836;2024-01-27T01:59:27;83471.59;;;0.68;58.23
83496;BME280;73431;40.794;43.836;2024-01-27T02:01:55;83482.78;;;0.78;58.09
83496;BME280;73431;40.794;43.836;2024-01-27T02:04:22;83481.09;;;0.84;57.59
83496;BME280;73431;40.794;43.836;2024-01-27T02:06:50;83471.75;;;0.86;57.57
83496;BME280;73431;40.794;43.836;2024-01-27T02:09:18;83473.50;;;0.89;57.67
83496;BME280;73431;40.794;43.836;2024-01-27T02:11:46;83476.09;;;0.89;57.67
83496;BME280;73431;40.794;43.836;2024-01-27T02:14:13;83482.72;;;0.90;57.59
83496;BME280;73431;40.794;43.836;2024-01-27T02:16:41;83469.16;;;0.86;57.88
83496;BME280;73431;40.794;43.836;2024-01-27T02:19:08;83472.81;;;0.89;57.50
83496;BME280;73431;40.794;43.836;2024-01-27T02:21:36;83469.78;;;0.90;57.72
83496;BME280;73431;40.794;43.836;2024-01-27T02:24:07;83471.97;;;0.92;57.30
83496;BME280;73431;40.794;43.836;2024-01-27T02:26:35;83470.41;;;0.94;57.60
83496;BME280;73431;40.794;43.836;2024-01-27T02:29:03;83469.28;;;0.95;57.32
83496;BME280;73431;40.794;43.836;2024-01-27T02:31:31;83476.13;;;0.77;57.44
83496;BME280;73431;40.794;43.836;2024-01-27T02:33:58;83469.59;;;0.50;58.14
83496;BME280;73431;40.794;43.836;2024-01-27T02:36:26;83472.47;;;0.52;57.98
83496;BME280;73431;40.794;43.836;2024-01-27T02:38:54;83465.94;;;0.61;58.06
83496;BME280;73431;40.794;43.836;2024-01-27T02:41:22;83457.47;;;0.60;58.27
83496;BME280;73431;40.794;43.836;2024-01-27T02:43:49;83460.78;;;0.61;57.80
83496;BME280;73431;40.794;43.836;2024-01-27T02:46:17;83413.41;;;0.26;58.39
83496;BME280;73431;40.794;43.836;2024-01-27T02:48:46;83469.53;;;0.76;57.71
83496;BME280;73431;40.794;43.836;2024-01-27T02:51:19;83460.81;;;0.82;57.57
83496;BME280;73431;40.794;43.836;2024-01-27T02:53:48;83456.22;;;0.86;57.71
83496;BME280;73431;40.794;43.836;2024-01-27T02:56:16;83450.19;;;0.89;57.25
83496;BME280;73431;40.794;43.836;2024-01-27T02:58:44;83455.69;;;0.91;57.46
83496;BME280;73431;40.794;43.836;2024-01-27T03:01:11;83451.97;;;0.92;57.69
83496;BME280;73431;40.794;43.836;2024-01-27T03:03:39;83454.13;;;0.94;57.59
83496;BME280;73431;40.794;43.836;2024-01-27T03:06:07;83449.38;;;0.92;57.54
83496;BME280;73431;40.794;43.836;2024-01-27T03:08:35;83439.81;;;0.68;58.18
83496;BME280;73431;40.794;43.836;2024-01-27T03:11:03;83435.44;;;0.43;58.90
83496;BME280;73431;40.794;43.836;2024-01-27T03:13:30;83447.44;;;0.49;59.23
83496;BME280;73431;40.794;43.836;2024-01-27T03:15:58;83438.78;;;0.65;59.14
83496;BME280;73431;40.794;43.836;2024-01-27T03:18:25;83438.38;;;0.67;58.59
83496;BME280;73431;40.794;43.836;2024-01-27T03:20:53;83436.31;;;0.62;58.66
83496;BME280;73431;40.794;43.836;2024-01-27T03:23:21;83442.72;;;0.70;58.92
83496;BME280;73431;40.794;43.836;2024-01-27T03:25:48;83443.09;;;0.81;58.63
83496;BME280;73431;40.794;43.836;2024-01-27T03:28:16;83442.19;;;0.75;58.54
83496;BME280;73431;40.794;43.836;2024-01-27T03:30:43;83437.44;;;0.73;58.68
83496;BME280;73431;40.794;43.836;2024-01-27T03:33:12;83422.69;;;0.83;58.64
83496;BME280;73431;40.794;43.836;2024-01-27T03:35:40;83432.78;;;0.90;58.44
83496;BME280;73431;40.794;43.836;2024-01-27T03:38:08;83423.78;;;0.94;58.56
83496;BME280;73431;40.794;43.836;2024-01-27T03:40:36;83418.00;;;0.90;58.51
83496;BME280;73431;40.794;43.836;2024-01-27T03:43:04;83426.03;;;0.71;58.77
83496;BME280;73431;40.794;43.836;2024-01-27T03:45:32;83419.22;;;0.64;58.68
83496;BME280;73431;40.794;43.836;2024-01-27T03:48:00;83430.34;;;0.52;58.95
83496;BME280;73431;40.794;43.836;2024-01-27T03:50:28;83432.28;;;0.61;59.18
83496;BME280;73431;40.794;43.836;2024-01-27T03:52:56;83426.66;;;0.75;58.91
83496;BME280;73431;40.794;43.836;2024-01-27T03:55:23;83428.16;;;0.85;58.54
83496;BME280;73431;40.794;43.836;2024-01-27T03:57:51;83429.69;;;0.95;58.23
83496;BME280;73431;40.794;43.836;2024-01-27T04:00:19;83402.28;;;0.85;57.75
83496;BME280;73431;40.794;43.836;2024-01-27T04:02:47;83437.09;;;1.05;57.55
83496;BME280;73431;40.794;43.836;2024-01-27T04:05:15;83439.28;;;1.07;57.89
83496;BME280;73431;40.794;43.836;2024-01-27T04:07:42;83442.59;;;1.08;57.97
83496;BME280;73431;40.794;43.836;2024-01-27T04:10:10;83441.84;;;1.07;57.90
83496;BME280;73431;40.794;43.836;2024-01-27T04:12:38;83444.22;;;1.14;57.36
83496;BME280;73431;40.794;43.836;2024-01-27T04:15:06;83433.63;;;1.21;57.43
83496;BME280;73431;40.794;43.836;2024-01-27T04:17:34;83415.50;;;1.08;57.40
83496;BME280;73431;40.794;43.836;2024-01-27T04:20:02;83437.34;;;1.20;57.23
83496;BME280;73431;40.794;43.836;2024-01-27T04:22:31;83425.59;;;1.06;57.57
83496;BME280;73431;40.794;43.836;2024-01-27T04:24:59;83435.31;;;0.81;57.50
83496;BME280;73431;40.794;43.836;2024-01-27T04:27:28;83441.00;;;0.88;57.99
83496;BME280;73431;40.794;43.836;2024-01-27T04:29:56;83424.56;;;0.82;57.67
83496;BME280;73431;40.794;43.836;2024-01-27T04:32:28;83438.47;;;0.97;57.73
83496;BME280;73431;40.794;43.836;2024-01-27T04:34:56;83431.00;;;0.99;57.76
83496;BME280;73431;40.794;43.836;2024-01-27T04:37:24;83433.47;;;0.81;58.33
83496;BME280;73431;40.794;43.836;2024-01-27T04:39:51;83446.66;;;0.62;58.39
83496;BME280;73431;40.794;43.836;2024-01-27T04:42:19;83442.09;;;0.66;58.44
83496;BME280;73431;40.794;43.836;2024-01-27T04:44:47;83433.84;;;0.58;58.18
83496;BME280;73431;40.794;43.836;2024-01-27T04:47:15;83441.50;;;0.62;58.35
83496;BME280;73431;40.794;43.836;2024-01-27T04:49:44;83424.50;;;0.73;58.47
83496;BME280;73431;40.794;43.836;2024-01-27T04:52:11;83429.66;;;0.73;58.61
83496;BME280;73431;40.794;43.836;2024-01-27T04:54:39;83379.19;;;0.22;58.73
83496;BME280;73431;40.794;43.836;2024-01-27T04:57:07;83432.16;;;0.64;58.97
83496;BME280;73431;40.794;43.836;2024-01-27T04:59:36;83426.50;;;0.57;59.04
83496;BME280;73431;40.794;43.836;2024-01-27T05:02:03;83434.53;;;0.71;58.91
83496;BME280;73431;40.794;43.836;2024-01-27T05:04:31;83432.06;;;0.89;58.50
83496;BME280;73431;40.794;43.836;2024-01-27T05:06:59;83430.31;;;0.86;58.03
83496;BME280;73431;40.794;43.836;2024-01-27T05:09:27;83429.63;;;0.86;58.51
83496;BME280;73431;40.794;43.836;2024-01-27T05:11:55;83422.94;;;0.97;58.13
83496;BME280;73431;40.794;43.836;2024-01-27T05:14:23;83426.59;;;1.09;58.46
83496;BME280;73431;40.794;43.836;2024-01-27T05:16:50;83417.03;;;1.19;58.10
83496;BME280;73431;40.794;43.836;2024-01-27T05:19:18;83428.50;;;1.30;57.93
83496;BME280;73431;40.794;43.836;2024-01-27T05:21:46;83419.91;;;1.42;57.58
83496;BME280;73431;40.794;43.836;2024-01-27T05:24:14;83421.47;;;1.62;57.09
83496;BME280;73431;40.794;43.836;2024-01-27T05:26:42;83394.81;;;1.61;56.68
83496;BME280;73431;40.794;43.836;2024-01-27T05:29:09;83428.63;;;1.88;56.44
83496;BME280;73431;40.794;43.836;2024-01-27T05:31:37;83430.56;;;1.97;56.64
83496;BME280;73431;40.794;43.836;2024-01-27T05:34:05;83393.75;;;1.80;55.54
83496;BME280;73431;40.794;43.836;2024-01-27T05:36:32;83429.03;;;2.18;55.54
83496;BME280;73431;40.794;43.836;2024-01-27T05:39:00;83428.06;;;2.24;55.22
83496;BME280;73431;40.794;43.836;2024-01-27T05:41:28;83427.63;;;2.26;55.34
83496;BME280;73431;40.794;43.836;2024-01-27T05:43:56;83432.25;;;2.31;55.62
83496;BME280;73431;40.794;43.836;2024-01-27T05:46:26;83437.44;;;2.31;55.71
83496;BME280;73431;40.794;43.836;2024-01-27T05:48:54;83442.50;;;2.34;55.11
83496;BME280;73431;40.794;43.836;2024-01-27T05:51:25;83440.78;;;2.31;55.26
83496;BME280;73431;40.794;43.836;2024-01-27T05:53:53;83441.75;;;2.25;55.82
83496;BME280;73431;40.794;43.836;2024-01-27T05:56:20;83450.56;;;2.36;55.61
83496;BME280;73431;40.794;43.836;2024-01-27T05:58:48;83430.38;;;2.22;55.41
83496;BME280;73431;40.794;43.836;2024-01-27T06:01:19;83453.34;;;2.42;55.78
83496;BME280;73431;40.794;43.836;2024-01-27T06:03:47;83457.81;;;2.41;54.66
83496;BME280;73431;40.794;43.836;2024-01-27T06:06:15;83454.72;;;2.25;55.50
83496;BME280;73431;40.794;43.836;2024-01-27T06:08:43;83460.75;;;2.12;55.63
83496;BME280;73431;40.794;43.836;2024-01-27T06:11:11;83435.28;;;1.89;56.08
83496;BME280;73431;40.794;43.836;2024-01-27T06:13:38;83457.34;;;1.94;56.16
83496;BME280;73431;40.794;43.836;2024-01-27T06:16:08;83461.41;;;1.42;57.04
83496;BME280;73431;40.794;43.836;2024-01-27T06:18:37;83400.63;;;0.78;57.93
83496;BME280;73431;40.794;43.836;2024-01-27T06:21:05;83456.69;;;1.06;58.03
83496;BME280;73431;40.794;43.836;2024-01-27T06:23:34;83473.56;;;1.11;58.44
83496;BME280;73431;40.794;43.836;2024-01-27T06:26:08;83466.94;;;1.32;58.33
83496;BME280;73431;40.794;43.836;2024-01-27T06:28:37;83480.44;;;1.27;58.08
83496;BME280;73431;40.794;43.836;2024-01-27T06:31:04;83475.75;;;1.56;57.74
83496;BME280;73431;40.794;43.836;2024-01-27T06:33:32;83468.72;;;1.44;57.77
83496;BME280;73431;40.794;43.836;2024-01-27T06:36:00;83487.81;;;1.50;58.09
83496;BME280;73431;40.794;43.836;2024-01-27T06:38:28;83477.06;;;1.39;58.35
83496;BME280;73431;40.794;43.836;2024-01-27T06:40:55;83478.13;;;1.29;58.41
83496;BME280;73431;40.794;43.836;2024-01-27T06:43:23;83482.00;;;1.24;58.31
83496;BME280;73431;40.794;43.836;2024-01-27T06:45:51;83480.06;;;1.16;58.53
83496;BME280;73431;40.794;43.836;2024-01-27T06:48:19;83482.25;;;1.17;59.32
83496;BME280;73431;40.794;43.836;2024-01-27T06:50:47;83472.78;;;1.23;58.94
83496;BME280;73431;40.794;43.836;2024-01-27T06:53:15;83474.09;;;1.28;58.87
83496;BME280;73431;40.794;43.836;2024-01-27T06:55:43;83476.44;;;1.35;58.55
83496;BME280;73431;40.794;43.836;2024-01-27T06:58:11;83473.34;;;1.40;58.86
83496;BME280;73431;40.794;43.836;2024-01-27T07:00:38;83438.91;;;1.18;59.19
83496;BME280;73431;40.794;43.836;2024-01-27T07:03:06;83448.50;;;1.30;59.21
83496;BME280;73431;40.794;43.836;2024-01-27T07:05:39;83453.63;;;1.42;58.85
83496;BME280;73431;40.794;43.836;2024-01-27T07:08:08;83457.28;;;1.54;59.06
83496;BME280;73431;40.794;43.836;2024-01-27T07:10:36;83455.66;;;1.69;58.96
83496;BME280;73431;40.794;43.836;2024-01-27T07:13:05;83453.16;;;1.87;58.48
83496;BME280;73431;40.794;43.836;2024-01-27T07:15:36;83450.00;;;1.92;58.46
83496;BME280;73431;40.794;43.836;2024-01-27T07:18:05;83448.47;;;2.04;58.57
83496;BME280;73431;40.794;43.836;2024-01-27T07:20:33;83457.47;;;2.21;57.70
83496;BME280;73431;40.794;43.836;2024-01-27T07:23:02;83465.59;;;2.32;57.60
83496;BME280;73431;40.794;43.836;2024-01-27T07:25:30;83461.59;;;2.49;57.13
83496;BME280;73431;40.794;43.836;2024-01-27T07:27:58;83450.38;;;2.61;57.02
83496;BME280;73431;40.794;43.836;2024-01-27T07:30:26;83462.69;;;2.79;56.73
83496;BME280;73431;40.794;43.836;2024-01-27T07:32:54;83463.16;;;2.96;56.27
83496;BME280;73431;40.794;43.836;2024-01-27T07:35:21;83454.63;;;3.04;55.31
83496;BME280;73431;40.794;43.836;2024-01-27T07:37:49;83458.66;;;2.96;56.67
83496;BME280;73431;40.794;43.836;2024-01-27T07:40:17;83453.47;;;3.24;56.10
83496;BME280;73431;40.794;43.836;2024-01-27T07:42:44;83452.91;;;3.38;55.70
83496;BME280;73431;40.794;43.836;2024-01-27T07:45:12;83453.47;;;3.33;55.68
83496;BME280;73431;40.794;43.836;2024-01-27T07:47:40;83445.69;;;3.14;56.46
83496;BME280;73431;40.794;43.836;2024-01-27T07:50:08;83454.78;;;3.19;56.37
83496;BME280;73431;40.794;43.836;2024-01-27T07:52:36;83440.47;;;3.05;56.13
83496;BME280;73431;40.794;43.836;2024-01-27T07:55:04;83451.16;;;3.07;56.35
83496;BME280;73431;40.794;43.836;2024-01-27T07:57:32;83454.50;;;3.08;57.21
83496;BME280;73431;40.794;43.836;2024-01-27T08:00:00;83451.59;;;3.06;56.91
83496;BME280;73431;40.794;43.836;2024-01-27T08:02:30;83444.50;;;2.79;57.10
83496;BME280;73431;40.794;43.836;2024-01-27T08:04:58;83442.00;;;2.57;58.12
83496;BME280;73431;40.794;43.836;2024-01-27T08:07:26;83449.97;;;2.72;57.24
83496;BME280;73431;40.794;43.836;2024-01-27T08:09:54;83458.94;;;2.89;56.90
83496;BME280;73431;40.794;43.836;2024-01-27T08:12:24;83454.75;;;2.83;57.16
83496;BME280;73431;40.794;43.836;2024-01-27T08:14:51;83457.19;;;2.77;56.82
83496;BME280;73431;40.794;43.836;2024-01-27T08:17:21;83458.94;;;2.89;57.47
83496;BME280;73431;40.794;43.836;2024-01-27T08:19:48;83459.97;;;3.01;57.22
83496;BME280;73431;40.794;43.836;2024-01-27T08:22:16;83456.50;;;2.95;57.45
83496;BME280;73431;40.794;43.836;2024-01-27T08:24:43;83455.06;;;3.12;57.27
83496;BME280;73431;40.794;43.836;2024-01-27T08:27:11;83433.38;;;2.97;57.12
83496;BME280;73431;40.794;43.836;2024-01-27T08:29:39;83451.31;;;3.40;56.50
83496;BME280;73431;40.794;43.836;2024-01-27T08:32:07;83446.13;;;3.49;56.28
83496;BME280;73431;40.794;43.836;2024-01-27T08:34:37;83453.06;;;3.25;56.84
83496;BME280;73431;40.794;43.836;2024-01-27T08:37:22;83418.09;;;3.17;56.85
83496;BME280;73431;40.794;43.836;2024-01-27T08:39:50;83448.13;;;3.45;57.54
83496;BME280;73431;40.794;43.836;2024-01-27T08:42:19;83448.13;;;3.54;56.58
83496;BME280;73431;40.794;43.836;2024-01-27T08:44:46;83440.34;;;3.36;56.53
83496;BME280;73431;40.794;43.836;2024-01-27T08:47:14;83442.66;;;3.25;57.80
83496;BME280;73431;40.794;43.836;2024-01-27T08:49:41;83440.06;;;3.34;57.33
83496;BME280;73431;40.794;43.836;2024-01-27T08:52:09;83437.72;;;3.54;57.90
83496;BME280;73431;40.794;43.836;2024-01-27T08:54:37;83437.31;;;3.47;57.13
83496;BME280;73431;40.794;43.836;2024-01-27T08:57:05;83434.53;;;3.59;57.86
83496;BME280;73431;40.794;43.836;2024-01-27T08:59:33;83438.81;;;3.99;57.12
83496;BME280;73431;40.794;43.836;2024-01-27T09:02:02;83432.00;;;4.01;56.13
83496;BME280;73431;40.794;43.836;2024-01-27T09:04:30;83433.88;;;4.01;55.59
83496;BME280;73431;40.794;43.836;2024-01-27T09:06:57;83421.16;;;4.03;54.88
83496;BME280;73431;40.794;43.836;2024-01-27T09:09:25;83424.31;;;4.07;55.64
83496;BME280;73431;40.794;43.836;2024-01-27T09:11:54;83422.84;;;4.15;56.00
83496;BME280;73431;40.794;43.836;2024-01-27T09:14:22;83422.69;;;4.28;55.68
83496;BME280;73431;40.794;43.836;2024-01-27T09:16:50;83428.44;;;4.32;55.74
83496;BME280;73431;40.794;43.836;2024-01-27T09:19:19;83426.94;;;4.49;53.90
83496;BME280;73431;40.794;43.836;2024-01-27T09:21:47;83424.28;;;4.58;52.66
83496;BME280;73431;40.794;43.836;2024-01-27T09:24:16;83414.34;;;4.47;53.23
83496;BME280;73431;40.794;43.836;2024-01-27T09:26:43;83433.25;;;4.57;53.27
83496;BME280;73431;40.794;43.836;2024-01-27T09:29:11;83435.75;;;4.51;52.38
83496;BME280;73431;40.794;43.836;2024-01-27T09:31:40;83430.38;;;4.55;52.78
83496;BME280;73431;40.794;43.836;2024-01-27T09:34:08;83425.38;;;4.66;53.30
83496;BME280;73431;40.794;43.836;2024-01-27T09:36:36;83420.00;;;4.69;52.40
83496;BME280;73431;40.794;43.836;2024-01-27T09:39:04;83438.50;;;4.80;51.30
83496;BME280;73431;40.794;43.836;2024-01-27T09:41:32;83439.06;;;4.85;52.49
83496;BME280;73431;40.794;43.836;2024-01-27T09:44:04;83439.44;;;4.92;52.47
83496;BME280;73431;40.794;43.836;2024-01-27T09:46:31;83436.25;;;4.97;52.51
83496;BME280;73431;40.794;43.836;2024-01-27T09:48:59;83439.63;;;5.12;52.74
83496;BME280;73431;40.794;43.836;2024-01-27T09:51:28;83427.75;;;5.11;52.35
83496;BME280;73431;40.794;43.836;2024-01-27T09:53:56;83439.38;;;5.10;51.99
83496;BME280;73431;40.794;43.836;2024-01-27T09:56:24;83436.91;;;5.07;51.35
83496;BME280;73431;40.794;43.836;2024-01-27T09:58:52;83435.91;;;5.04;52.50
83496;BME280;73431;40.794;43.836;2024-01-27T10:01:24;83434.47;;;5.03;52.23
83496;BME280;73431;40.794;43.836;2024-01-27T10:03:54;83435.38;;;5.00;52.16
83496;BME280;73431;40.794;43.836;2024-01-27T10:06:22;83423.81;;;4.92;52.15
83496;BME280;73431;40.794;43.836;2024-01-27T10:08:53;83411.56;;;4.84;51.82
83496;BME280;73431;40.794;43.836;2024-01-27T10:11:23;83443.19;;;5.00;52.58
83496;BME280;73431;40.794;43.836;2024-01-27T10:13:56;83435.38;;;5.00;51.92
83496;BME280;73431;40.794;43.836;2024-01-27T10:16:26;83447.28;;;4.92;52.25
83496;BME280;73431;40.794;43.836;2024-01-27T10:19:02;83438.81;;;4.73;53.06
83496;BME280;73431;40.794;43.836;2024-01-27T10:21:30;83437.41;;;4.63;53.70
83496;BME280;73431;40.794;43.836;2024-01-27T10:24:00;83443.75;;;4.39;52.97
83496;BME280;73431;40.794;43.836;2024-01-27T10:26:32;83456.09;;;4.29;54.21
83496;BME280;73431;40.794;43.836;2024-01-27T10:29:01;83456.50;;;4.37;54.56
83496;BME280;73431;40.794;43.836;2024-01-27T10:31:30;83430.50;;;4.18;54.21
83496;BME280;73431;40.794;43.836;2024-01-27T10:33:58;83460.88;;;4.31;54.63
83496;BME280;73431;40.794;43.836;2024-01-27T10:36:38;83468.41;;;4.19;54.08
83496;BME280;73431;40.794;43.836;2024-01-27T10:39:22;83461.38;;;4.02;52.95
83496;BME280;73431;40.794;43.836;2024-01-27T10:41:51;83469.31;;;4.07;54.83
83496;BME280;73431;40.794;43.836;2024-01-27T10:44:20;83485.19;;;4.18;54.25
83496;BME280;73431;40.794;43.836;2024-01-27T10:46:49;83465.44;;;3.85;54.64
83496;BME280;73431;40.794;43.836;2024-01-27T10:49:17;83491.28;;;4.06;54.41
83496;BME280;73431;40.794;43.836;2024-01-27T10:51:55;83496.50;;;3.97;55.11
83496;BME280;73431;40.794;43.836;2024-01-27T10:54:25;83479.88;;;4.04;54.84
83496;BME280;73431;40.794;43.836;2024-01-27T10:56:56;83491.88;;;4.01;54.78
83496;BME280;73431;40.794;43.836;2024-01-27T10:59:27;83493.06;;;3.73;54.67
83496;BME280;73431;40.794;43.836;2024-01-27T11:01:56;83495.84;;;3.60;55.52
83496;BME280;73431;40.794;43.836;2024-01-27T11:04:25;83475.88;;;3.39;55.74
83496;BME280;73431;40.794;43.836;2024-01-27T11:06:55;83490.75;;;3.39;56.53
83496;BME280;73431;40.794;43.836;2024-01-27T11:09:24;83500.69;;;3.13;56.76
83496;BME280;73431;40.794;43.836;2024-01-27T11:11:52;83499.69;;;3.10;57.54
83496;BME280;73431;40.794;43.836;2024-01-27T11:14:21;83513.28;;;3.33;57.97
83496;BME280;73431;40.794;43.836;2024-01-27T11:16:54;83509.25;;;3.59;56.46
83496;BME280;73431;40.794;43.836;2024-01-27T11:19:23;83499.72;;;3.65;55.80
83496;BME280;73431;40.794;43.836;2024-01-27T11:22:04;83506.97;;;3.70;55.74
83496;BME280;73431;40.794;43.836;2024-01-27T11:24:32;83499.16;;;3.70;56.48
83496;BME280;73431;40.794;43.836;2024-01-27T11:27:06;83506.66;;;3.59;55.64
83496;BME280;73431;40.794;43.836;2024-01-27T11:29:35;83510.41;;;3.58;56.07
83496;BME280;73431;40.794;43.836;2024-01-27T11:32:03;83495.09;;;3.69;55.63
83496;BME280;73431;40.794;43.836;2024-01-27T11:34:45;83505.78;;;3.98;54.72
83496;BME280;73431;40.794;43.836;2024-01-27T11:37:17;83510.16;;;4.34;55.13
83496;BME280;73431;40.794;43.836;2024-01-27T11:39:47;83509.41;;;4.52;52.71
83496;BME280;73431;40.794;43.836;2024-01-27T11:42:16;83517.09;;;4.37;52.44
83496;BME280;73431;40.794;43.836;2024-01-27T11:44:44;83519.34;;;4.20;52.22
83496;BME280;73431;40.794;43.836;2024-01-27T11:47:19;83520.34;;;4.23;52.86
83496;BME280;73431;40.794;43.836;2024-01-27T11:49:54;83497.19;;;4.16;52.39
83496;BME280;73431;40.794;43.836;2024-01-27T11:52:24;83522.22;;;4.22;52.32
83496;BME280;73431;40.794;43.836;2024-01-27T11:54:54;83520.34;;;4.23;52.83
83496;BME280;73431;40.794;43.836;2024-01-27T11:57:23;83521.47;;;4.40;52.88
83496;BME280;73431;40.794;43.836;2024-01-27T11:59:55;83509.63;;;4.30;53.20
83496;BME280;73431;40.794;43.836;2024-01-27T12:02:23;83514.78;;;4.48;52.48
83496;BME280;73431;40.794;43.836;2024-01-27T12:04:51;83506.47;;;4.17;51.22
83496;BME280;73431;40.794;43.836;2024-01-27T12:07:20;83519.19;;;4.06;52.63
83496;BME280;73431;40.794;43.836;2024-01-27T12:09:49;83514.41;;;4.13;53.04
83496;BME280;73431;40.794;43.836;2024-01-27T12:12:18;83503.41;;;4.18;51.70
83496;BME280;73431;40.794;43.836;2024-01-27T12:14:50;83515.28;;;4.10;50.05
83496;BME280;73431;40.794;43.836;2024-01-27T12:17:19;83530.06;;;3.68;49.73
83496;BME280;73431;40.794;43.836;2024-01-27T12:19:49;83526.31;;;3.60;51.97
83496;BME280;73431;40.794;43.836;2024-01-27T12:22:28;83534.25;;;3.74;51.57
83496;BME280;73431;40.794;43.836;2024-01-27T12:25:10;83535.13;;;3.71;50.14
83496;BME280;73431;40.794;43.836;2024-01-27T12:27:40;83529.94;;;3.99;51.53
83496;BME280;73431;40.794;43.836;2024-01-27T12:30:08;83525.72;;;4.10;49.41
83496;BME280;73431;40.794;43.836;2024-01-27T12:32:37;83529.16;;;4.25;51.84
83496;BME280;73431;40.794;43.836;2024-01-27T12:35:06;83533.06;;;4.30;50.56
83496;BME280;73431;40.794;43.836;2024-01-27T12:37:35;83533.13;;;4.54;50.01
83496;BME280;73431;40.794;43.836;2024-01-27T12:40:17;83526.28;;;4.74;48.74
83496;BME280;73431;40.794;43.836;2024-01-27T12:42:50;83535.63;;;4.90;50.32
83496;BME280;73431;40.794;43.836;2024-01-27T12:45:18;83535.66;;;4.81;49.07
83496;BME280;73431;40.794;43.836;2024-01-27T12:47:46;83543.69;;;4.68;49.28
83496;BME280;73431;40.794;43.836;2024-01-27T12:50:14;83545.25;;;4.66;50.14
83496;BME280;73431;40.794;43.836;2024-01-27T12:52:42;83524.81;;;4.73;49.25
83496;BME280;73431;40.794;43.836;2024-01-27T12:55:10;83559.31;;;5.10;49.16
83496;BME280;73431;40.794;43.836;2024-01-27T12:57:38;83551.44;;;5.19;49.35
83496;BME280;73431;40.794;43.836;2024-01-27T13:00:07;83550.41;;;5.26;49.33
83496;BME280;73431;40.794;43.836;2024-01-27T13:02:39;83558.06;;;5.29;49.04
83496;BME280;73431;40.794;43.836;2024-01-27T13:05:07;83569.19;;;5.30;48.90
83496;BME280;73431;40.794;43.836;2024-01-27T13:07:34;83575.66;;;5.20;46.29